Terminal Aerodrome Forecast
Issued by NWS Central Illinois

Home | Current Version | Previous Version | Text Only | Print | Product List | Glossary On
Versions: 1 2 3 4 5 6 7 8 9 10 11 12 13 14 15 16 17 18 19 20 21 22 23 24 25
000
FTUS43 KILX 261247 AAA
TAFPIA
TAF AMD
KPIA 261247Z 2613/2712 09006KT 6SM BR SCT070 BKN150
     FM261400 13008KT P6SM VCSH SCT050 OVC150
     FM261700 15009KT P6SM VCTS SCT050CB BKN120
     FM262000 18006KT P6SM VCTS BKN040CB
     FM270000 24005KT P6SM BKN045
     FM270900 01004KT P6SM SCT015=

USA.gov is the U.S. government's official web portal to all federal, state and local government web resources and services.